Time;durP1;ratioP1;P1;durP2;ratioP2;P2;SDS_P1;SDS_P2;PMS_P1;PMS_P2;Temp;Humidity;BMP_temperature;BMP_pressure;BME280_temperature;BME280_humidity;BME280_pressure;Samples;Min_cycle;Max_cycle;Signal;HPM_P1;HPM_P2
2022/05/15 00:02:21;;;;;;;8.03;6.47;;;12.10;99.90;;;;;;5066174;28;20196;-78
2022/05/15 00:04:49;;;;;;;7.27;6.47;;;12.00;99.90;;;;;;5068549;28;20203;-78
2022/05/15 00:07:16;;;;;;;7.23;6.53;;;11.90;99.90;;;;;;5082580;28;20563;-79
2022/05/15 00:09:44;;;;;;;6.83;6.23;;;11.90;99.90;;;;;;5060648;28;20747;-77
2022/05/15 00:12:12;;;;;;;7.27;6.57;;;11.90;99.90;;;;;;5059475;28;20222;-79
2022/05/15 00:14:40;;;;;;;7.03;6.43;;;11.90;99.90;;;;;;5066871;28;20198;-78
2022/05/15 00:17:07;;;;;;;7.30;6.60;;;11.80;99.90;;;;;;5059174;28;20309;-78
2022/05/15 00:19:34;;;;;;;7.43;6.47;;;11.70;99.90;;;;;;5070862;28;20268;-77
2022/05/15 00:22:01;;;;;;;7.33;6.73;;;11.80;99.90;;;;;;5065694;28;20199;-78
2022/05/15 00:24:29;;;;;;;7.50;6.80;;;11.70;99.90;;;;;;5069234;28;20233;-79
2022/05/15 00:26:57;;;;;;;7.50;6.80;;;11.60;99.90;;;;;;5067242;28;20226;-78
2022/05/15 00:29:24;;;;;;;7.93;7.13;;;11.60;99.90;;;;;;5065207;28;20216;-79
2022/05/15 00:31:51;;;;;;;7.40;6.60;;;11.60;99.90;;;;;;5065565;28;20258;-77
2022/05/15 00:34:18;;;;;;;7.13;6.50;;;11.60;99.90;;;;;;5069113;28;20672;-80
2022/05/15 00:36:46;;;;;;;7.30;6.70;;;11.50;99.90;;;;;;5067466;28;20216;-79
2022/05/15 00:39:13;;;;;;;7.40;6.80;;;11.50;99.90;;;;;;5068553;28;20205;-79
2022/05/15 00:41:40;;;;;;;7.70;6.70;;;11.40;99.90;;;;;;5076703;28;20187;-78
2022/05/15 00:44:09;;;;;;;7.50;6.80;;;11.40;99.90;;;;;;5066809;28;20201;-78
2022/05/15 00:46:39;;;;;;;7.07;6.47;;;11.40;99.90;;;;;;5081700;28;20310;-78
2022/05/15 00:49:08;;;;;;;7.13;6.47;;;11.30;99.90;;;;;;5070559;28;20242;-77
2022/05/15 00:51:39;;;;;;;8.37;7.00;;;11.40;99.90;;;;;;5077874;28;20290;-77
2022/05/15 00:54:10;;;;;;;8.13;7.43;;;11.30;99.90;;;;;;5072185;28;20200;-77
2022/05/15 00:56:40;;;;;;;8.23;7.50;;;11.30;99.90;;;;;;5074110;28;20217;-79
2022/05/15 00:59:13;;;;;;;8.20;7.50;;;11.20;99.90;;;;;;5073851;28;20267;-76
2022/05/15 01:01:40;;;;;;;8.17;7.40;;;11.20;99.90;;;;;;5073894;28;20296;-77
2022/05/15 01:04:08;;;;;;;7.50;6.83;;;11.20;99.90;;;;;;5075073;28;20224;-78
2022/05/15 01:06:36;;;;;;;8.27;7.57;;;11.20;99.90;;;;;;5070299;28;20235;-79
2022/05/15 01:09:05;;;;;;;8.83;7.83;;;11.20;99.90;;;;;;5069927;28;20207;-79
2022/05/15 01:11:34;;;;;;;8.20;7.40;;;11.10;99.90;;;;;;5067213;28;20268;-77
2022/05/15 01:14:05;;;;;;;7.90;7.10;;;11.10;99.90;;;;;;5070351;28;20206;-77
2022/05/15 01:16:34;;;;;;;7.73;7.07;;;11.10;99.90;;;;;;5073436;28;20213;-78
2022/05/15 01:19:03;;;;;;;7.83;7.13;;;11.10;99.90;;;;;;5073553;28;20184;-79
2022/05/15 01:21:34;;;;;;;8.77;7.47;;;11.10;99.90;;;;;;5067461;28;20200;-77
2022/05/15 01:24:02;;;;;;;7.73;7.10;;;11.00;99.90;;;;;;5075090;28;20199;-78
2022/05/15 01:26:33;;;;;;;8.40;7.30;;;11.10;99.90;;;;;;5069772;28;20721;-78
2022/05/15 01:29:01;;;;;;;8.70;7.90;;;11.00;99.90;;;;;;5077317;28;20214;-79
2022/05/15 01:31:28;;;;;;;8.77;7.80;;;11.00;99.90;;;;;;5075470;28;20195;-78
2022/05/15 01:33:57;;;;;;;8.90;7.97;;;10.90;99.90;;;;;;5070035;28;20293;-79
2022/05/15 01:36:26;;;;;;;8.47;7.77;;;10.90;99.90;;;;;;5073578;28;20628;-79
2022/05/15 01:38:55;;;;;;;8.67;7.80;;;10.90;99.90;;;;;;5074172;28;20192;-78
2022/05/15 01:41:22;;;;;;;8.90;8.00;;;10.90;99.90;;;;;;5066518;28;20558;-78
2022/05/15 01:43:53;;;;;;;9.07;8.23;;;10.90;99.90;;;;;;5066856;28;20260;-79
2022/05/15 01:46:22;;;;;;;8.40;7.60;;;10.80;99.90;;;;;;5067765;28;20215;-77
2022/05/15 01:48:50;;;;;;;8.43;7.73;;;10.80;99.90;;;;;;5072614;28;20283;-78
2022/05/15 01:51:17;;;;;;;9.10;8.20;;;10.80;99.90;;;;;;5079589;28;20197;-79
2022/05/15 01:53:44;;;;;;;9.03;8.13;;;10.80;99.90;;;;;;5064695;28;20678;-79
2022/05/15 01:56:13;;;;;;;8.63;7.60;;;10.80;99.90;;;;;;5073513;28;20275;-79
2022/05/15 01:58:40;;;;;;;9.13;8.23;;;10.80;99.90;;;;;;5072921;28;20186;-78
2022/05/15 02:01:08;;;;;;;8.37;7.67;;;10.70;99.90;;;;;;5062781;28;20222;-77
2022/05/15 02:03:36;;;;;;;8.53;7.73;;;10.70;99.90;;;;;;5064335;28;20238;-79
2022/05/15 02:06:05;;;;;;;7.93;7.33;;;10.70;99.90;;;;;;5080472;23;20223;-78
2022/05/15 02:08:32;;;;;;;9.27;8.37;;;10.60;99.90;;;;;;5041142;28;20215;-77
2022/05/15 02:11:00;;;;;;;8.77;7.83;;;10.60;99.90;;;;;;5040950;28;20661;-79
2022/05/15 02:13:29;;;;;;;8.30;7.50;;;10.60;99.90;;;;;;5041211;28;20196;-77
2022/05/15 02:15:56;;;;;;;8.33;7.63;;;10.60;99.90;;;;;;5031053;28;20296;-78
2022/05/15 02:18:23;;;;;;;9.10;8.17;;;10.60;99.90;;;;;;5016833;28;20560;-78
2022/05/15 02:20:50;;;;;;;8.80;8.00;;;10.60;99.90;;;;;;5024567;28;20195;-77
2022/05/15 02:23:17;;;;;;;9.10;8.20;;;10.50;99.90;;;;;;5023615;28;20203;-77
2022/05/15 02:25:44;;;;;;;9.93;8.93;;;10.50;99.90;;;;;;5017364;28;20679;-78
2022/05/15 02:28:11;;;;;;;8.60;7.80;;;10.50;99.90;;;;;;5016238;28;20193;-79
2022/05/15 02:30:40;;;;;;;9.33;8.53;;;10.40;99.90;;;;;;5017279;28;20625;-78
2022/05/15 02:33:07;;;;;;;8.97;8.17;;;10.40;99.90;;;;;;5019853;28;20193;-78
2022/05/15 02:35:35;;;;;;;8.93;8.10;;;10.40;99.90;;;;;;5022961;28;20188;-78
2022/05/15 02:38:02;;;;;;;9.20;8.40;;;10.40;99.90;;;;;;5019710;28;20683;-77
2022/05/15 02:40:29;;;;;;;10.83;8.40;;;10.40;99.90;;;;;;5016095;28;20223;-79
2022/05/15 02:42:56;;;;;;;9.27;8.37;;;10.40;99.90;;;;;;5019339;28;20191;-78
2022/05/15 02:45:24;;;;;;;10.00;9.10;;;10.40;99.90;;;;;;5022323;28;20717;-79
2022/05/15 02:47:52;;;;;;;8.27;7.57;;;10.40;99.90;;;;;;5017301;28;20196;-80
2022/05/15 02:53:07;;;;;;;8.60;7.80;;;10.30;99.90;;;;;;5019888;28;20221;-80
2022/05/15 02:55:35;;;;;;;9.00;8.07;;;10.30;99.90;;;;;;5032695;28;20287;-78
2022/05/15 02:58:02;;;;;;;8.97;8.17;;;10.20;99.90;;;;;;5003486;28;20237;-77
2022/05/15 03:00:30;;;;;;;9.03;8.23;;;10.20;99.90;;;;;;5012190;28;20225;-77
2022/05/15 03:02:58;;;;;;;9.97;8.93;;;10.20;99.90;;;;;;5010880;28;20328;-77
2022/05/15 03:05:25;;;;;;;9.20;8.40;;;10.20;99.90;;;;;;5011271;28;20216;-77
2022/05/15 03:07:53;;;;;;;9.00;8.20;;;10.20;99.90;;;;;;5005987;28;20606;-77
2022/05/15 03:10:22;;;;;;;9.43;8.60;;;10.20;99.90;;;;;;5012552;28;20287;-77
2022/05/15 03:12:50;;;;;;;8.93;8.23;;;10.20;99.90;;;;;;5013186;28;20212;-77
2022/05/15 03:15:17;;;;;;;9.13;8.33;;;10.20;99.90;;;;;;5013980;28;20204;-77
2022/05/15 03:17:44;;;;;;;8.53;7.83;;;10.20;99.90;;;;;;5010728;28;20225;-81
2022/05/15 03:20:15;;;;;;;8.20;7.50;;;10.20;99.90;;;;;;5023547;28;20196;-83
2022/05/15 03:22:42;;;;;;;8.33;7.73;;;10.20;99.90;;;;;;5018182;28;20192;-80
2022/05/15 03:25:11;;;;;;;9.00;8.20;;;10.10;99.90;;;;;;5021803;28;20218;-79
2022/05/15 03:27:38;;;;;;;8.37;7.67;;;10.10;99.90;;;;;;5028698;28;20251;-79
2022/05/15 03:30:07;;;;;;;8.97;8.20;;;10.10;99.90;;;;;;5020487;28;20243;-80
2022/05/15 03:32:34;;;;;;;12.60;9.10;;;10.00;99.90;;;;;;5015222;28;20192;-80
2022/05/15 03:35:01;;;;;;;10.57;9.67;;;10.10;99.90;;;;;;5018390;28;20720;-80
2022/05/15 03:37:30;;;;;;;10.37;8.80;;;10.10;99.90;;;;;;5020571;28;20728;-80
2022/05/15 03:39:57;;;;;;;9.23;8.50;;;10.10;99.90;;;;;;5021443;28;20208;-80
2022/05/15 03:42:25;;;;;;;9.57;8.60;;;10.10;99.90;;;;;;5019420;28;20196;-79
2022/05/15 03:44:52;;;;;;;8.53;7.83;;;10.00;99.90;;;;;;5035877;28;20188;-80
2022/05/15 03:47:19;;;;;;;9.30;8.40;;;10.10;99.90;;;;;;5021257;28;20223;-80
2022/05/15 03:49:47;;;;;;;9.00;8.30;;;10.10;99.90;;;;;;5018026;28;20219;-80
2022/05/15 03:52:16;;;;;;;9.80;8.97;;;10.10;99.90;;;;;;5024076;28;20191;-79
2022/05/15 03:54:44;;;;;;;9.27;8.53;;;10.10;99.90;;;;;;5011874;28;20193;-79
2022/05/15 03:57:11;;;;;;;9.67;8.87;;;10.10;99.90;;;;;;5013780;28;20222;-79
2022/05/15 03:59:41;;;;;;;9.10;8.40;;;10.10;99.90;;;;;;5014699;28;20724;-80
2022/05/15 04:02:10;;;;;;;9.67;8.87;;;10.10;99.90;;;;;;5018471;28;20270;-80
2022/05/15 04:04:37;;;;;;;9.43;8.53;;;10.10;99.90;;;;;;5014655;28;20223;-78
2022/05/15 04:07:05;;;;;;;9.47;8.77;;;10.20;99.90;;;;;;5018599;28;20732;-79
2022/05/15 04:09:33;;;;;;;8.87;8.07;;;10.20;99.90;;;;;;5015741;28;20807;-79
2022/05/15 04:12:02;;;;;;;9.80;8.90;;;10.30;99.90;;;;;;5025107;28;20194;-78
2022/05/15 04:14:29;;;;;;;9.93;9.03;;;10.30;99.90;;;;;;5015238;28;20216;-78
2022/05/15 04:16:56;;;;;;;9.37;8.47;;;10.30;99.90;;;;;;5026767;28;20219;-78
2022/05/15 04:19:23;;;;;;;8.70;8.00;;;10.30;99.90;;;;;;5023327;28;20192;-77
2022/05/15 04:21:50;;;;;;;8.93;8.20;;;10.40;99.90;;;;;;5002588;28;20202;-79
2022/05/15 04:24:18;;;;;;;9.37;8.47;;;10.40;99.90;;;;;;5013241;28;20197;-78
2022/05/15 04:26:47;;;;;;;9.80;8.90;;;10.40;99.90;;;;;;5012477;28;20215;-78
2022/05/15 04:29:16;;;;;;;9.47;8.67;;;10.50;99.90;;;;;;5008397;28;20200;-78
2022/05/15 04:31:43;;;;;;;9.23;8.43;;;10.70;99.90;;;;;;5032012;28;20598;-78
2022/05/15 04:34:10;;;;;;;9.43;7.97;;;10.70;99.90;;;;;;5017606;28;20684;-79
2022/05/15 04:36:37;;;;;;;9.53;8.73;;;10.80;99.90;;;;;;5018245;28;20217;-78
2022/05/15 04:39:05;;;;;;;9.03;8.37;;;10.90;99.90;;;;;;5013119;28;20193;-78
2022/05/15 04:41:33;;;;;;;9.00;8.30;;;11.00;99.90;;;;;;5024167;28;20202;-78
2022/05/15 04:43:59;;;;;;;8.90;8.20;;;11.10;99.90;;;;;;5019046;28;20216;-78
2022/05/15 04:46:29;;;;;;;9.13;8.40;;;11.30;99.90;;;;;;5023052;28;20224;-78
2022/05/15 04:48:56;;;;;;;9.13;8.33;;;11.40;99.90;;;;;;5012419;28;20945;-78
2022/05/15 04:51:23;;;;;;;9.60;8.90;;;11.50;99.90;;;;;;5014871;28;20241;-79
2022/05/15 04:53:50;;;;;;;9.20;8.40;;;11.70;99.90;;;;;;5015948;28;20205;-78
2022/05/15 04:56:17;;;;;;;9.07;8.20;;;12.00;99.90;;;;;;5023057;28;20228;-82
2022/05/15 04:58:44;;;;;;;9.10;8.40;;;12.30;99.90;;;;;;5024794;28;20192;-80
2022/05/15 05:01:11;;;;;;;8.70;7.90;;;12.40;99.90;;;;;;5029559;28;20194;-81
2022/05/15 05:03:39;;;;;;;8.43;7.83;;;12.50;99.90;;;;;;5030822;28;20263;-80
2022/05/15 05:06:06;;;;;;;9.50;8.70;;;12.50;99.90;;;;;;5024408;28;20293;-78
2022/05/15 05:08:33;;;;;;;8.90;8.10;;;12.50;99.90;;;;;;5021773;28;20199;-79
2022/05/15 05:11:00;;;;;;;9.30;8.60;;;12.60;99.90;;;;;;5029690;28;20692;-81
2022/05/15 05:13:27;;;;;;;10.03;9.23;;;12.60;99.90;;;;;;5021467;28;20209;-81
2022/05/15 05:15:53;;;;;;;9.17;8.47;;;12.80;99.90;;;;;;5025876;28;20220;-80
2022/05/15 05:18:20;;;;;;;10.97;10.07;;;12.90;99.90;;;;;;5025836;28;20533;-81
2022/05/15 05:20:49;;;;;;;9.47;8.77;;;13.00;99.90;;;;;;5022803;28;20204;-81
2022/05/15 05:23:15;;;;;;;7.60;7.00;;;13.20;99.90;;;;;;5015978;28;20202;-81
2022/05/15 05:25:42;;;;;;;7.70;7.10;;;13.30;99.90;;;;;;5019798;28;20189;-81
2022/05/15 05:28:10;;;;;;;4.87;3.57;;;13.40;99.90;;;;;;5016657;28;20200;-80
2022/05/15 05:30:38;;;;;;;7.17;4.00;;;13.60;99.90;;;;;;5026392;28;20254;-81
2022/05/15 05:33:05;;;;;;;5.73;4.07;;;13.70;99.90;;;;;;5019502;28;20597;-82
2022/05/15 05:35:32;;;;;;;7.03;6.43;;;13.80;99.90;;;;;;5020442;28;20195;-80
2022/05/15 05:38:00;;;;;;;7.93;7.23;;;14.00;99.90;;;;;;5022608;28;20189;-80
2022/05/15 05:40:27;;;;;;;6.10;5.57;;;14.20;99.90;;;;;;5023626;28;20191;-81
2022/05/15 05:42:54;;;;;;;6.03;5.53;;;14.60;99.90;;;;;;5020913;28;20205;-81
2022/05/15 05:45:21;;;;;;;5.57;5.07;;;15.20;99.90;;;;;;5024592;28;20692;-81
2022/05/15 05:47:50;;;;;;;4.90;4.50;;;15.70;99.90;;;;;;5023929;28;20601;-81
2022/05/15 05:50:19;;;;;;;7.20;6.63;;;16.10;99.90;;;;;;5015654;28;20251;-80
2022/05/15 05:52:46;;;;;;;4.93;4.53;;;16.20;99.90;;;;;;5028747;28;20200;-86
2022/05/15 05:55:16;;;;;;;7.87;4.90;;;16.20;99.90;;;;;;5020028;28;20207;-80
2022/05/15 05:57:44;;;;;;;5.37;4.30;;;16.20;99.90;;;;;;5019611;28;20214;-81
2022/05/15 06:00:15;;;;;;;4.97;4.03;;;16.20;99.90;;;;;;5027135;28;20243;-82
2022/05/15 06:02:42;;;;;;;6.07;4.43;;;16.20;99.90;;;;;;5012733;28;20224;-81
2022/05/15 06:05:08;;;;;;;4.93;4.30;;;16.20;99.90;;;;;;5020105;28;20260;-81
2022/05/15 06:07:37;;;;;;;4.13;3.80;;;16.10;99.90;;;;;;5020250;28;20318;-81
2022/05/15 06:10:06;;;;;;;4.57;3.90;;;16.30;99.90;;;;;;5024026;28;20222;-81
2022/05/15 06:12:34;;;;;;;6.07;5.47;;;16.30;99.90;;;;;;5018266;28;20598;-80
2022/05/15 06:15:01;;;;;;;6.33;5.83;;;16.30;99.90;;;;;;5021597;28;20250;-80
2022/05/15 06:17:30;;;;;;;6.63;3.50;;;16.30;99.90;;;;;;5023960;28;20208;-82
2022/05/15 06:19:57;;;;;;;4.40;3.80;;;16.20;99.90;;;;;;5012208;28;20701;-84
2022/05/15 06:22:24;;;;;;;5.20;4.70;;;16.30;99.90;;;;;;5018686;28;20242;-84
2022/05/15 06:24:57;;;;;;;5.47;4.97;;;16.60;99.90;;;;;;5014539;28;20202;-82
2022/05/15 06:27:35;;;;;;;5.70;5.20;;;17.10;99.90;;;;;;5016605;28;20267;-82
2022/05/15 06:34:27;;;;;;;5.37;3.80;;;17.50;99.90;;;;;;5014434;28;20260;-83
2022/05/15 06:47:36;;;;;;;5.10;4.60;;;19.60;99.90;;;;;;5149726;22;20255;-85
2022/05/15 06:50:12;;;;;;;7.03;6.43;;;19.90;99.90;;;;;;4995646;28;20193;-84
2022/05/15 07:18:29;;;;;;;7.07;6.47;;;21.90;99.90;;;;;;5064726;23;20243;-81
2022/05/15 07:20:56;;;;;;;6.23;5.60;;;22.00;99.90;;;;;;5031460;28;20203;-83
2022/05/15 07:23:26;;;;;;;6.83;6.13;;;22.20;99.90;;;;;;5038329;28;20668;-82
2022/05/15 07:25:54;;;;;;;8.00;6.03;;;22.30;99.90;;;;;;5024721;28;20220;-84
2022/05/15 07:28:24;;;;;;;6.77;6.07;;;22.50;99.90;;;;;;5023406;28;20197;-86
2022/05/15 07:30:53;;;;;;;6.43;5.93;;;22.30;99.90;;;;;;5017468;28;20208;-84
2022/05/15 07:33:20;;;;;;;5.27;4.77;;;22.30;99.90;;;;;;5021124;28;20246;-84
2022/05/15 07:35:49;;;;;;;5.13;4.67;;;22.40;99.90;;;;;;5018444;28;20646;-84
2022/05/15 07:38:16;;;;;;;6.13;5.53;;;22.50;99.90;;;;;;5022679;28;20204;-83
2022/05/15 07:40:44;;;;;;;6.60;5.03;;;22.80;99.90;;;;;;5000863;28;20201;-84
2022/05/15 07:43:12;;;;;;;5.80;5.40;;;23.20;99.90;;;;;;5019577;28;20248;-86
2022/05/15 07:45:40;;;;;;;6.37;5.77;;;23.30;99.90;;;;;;5012745;28;20196;-84
2022/05/15 07:48:08;;;;;;;6.83;6.40;;;23.40;99.90;;;;;;5016993;28;20184;-86
2022/05/15 07:50:35;;;;;;;6.73;6.23;;;23.10;99.90;;;;;;5007991;28;20211;-84
2022/05/15 07:53:04;;;;;;;10.40;6.03;;;23.40;99.90;;;;;;5015839;28;20649;-81
2022/05/15 07:55:31;;;;;;;6.10;5.60;;;23.50;99.90;;;;;;5021694;28;20196;-82
2022/05/15 07:57:57;;;;;;;8.43;6.30;;;23.80;99.90;;;;;;5021240;28;20548;-84
2022/05/15 08:00:26;;;;;;;6.83;6.30;;;24.00;99.90;;;;;;5012713;28;20260;-85
2022/05/15 08:03:02;;;;;;;5.63;5.03;;;24.20;99.90;;;;;;5026716;28;20204;-85
2022/05/15 08:08:15;;;;;;;6.87;6.37;;;24.50;99.90;;;;;;5033117;23;20220;-78
2022/05/15 08:10:44;;;;;;;8.17;6.80;;;24.50;99.90;;;;;;5023277;28;20271;-78
2022/05/15 08:13:13;;;;;;;4.50;3.77;;;24.10;99.90;;;;;;5014382;28;20745;-78
2022/05/15 08:15:42;;;;;;;4.87;3.67;;;24.20;99.90;;;;;;5019101;28;20563;-77
2022/05/15 08:23:41;;;;;;;5.30;3.97;;;24.20;99.90;;;;;;5004431;28;20249;-78
2022/05/15 08:26:08;;;;;;;4.27;2.90;;;24.20;99.90;;;;;;4996400;28;20260;-77
2022/05/15 08:28:35;;;;;;;10.43;3.70;;;24.60;99.90;;;;;;5006493;28;20216;-77
2022/05/15 08:31:03;;;;;;;5.63;3.30;;;24.90;99.90;;;;;;5011291;28;20215;-77
2022/05/15 08:33:31;;;;;;;5.80;5.37;;;25.00;99.90;;;;;;5015108;28;20251;-77
2022/05/15 08:35:58;;;;;;;4.00;3.17;;;25.00;99.90;;;;;;5000598;28;20193;-76
2022/05/15 08:38:25;;;;;;;5.70;3.77;;;25.20;99.90;;;;;;5022864;28;20216;-77
2022/05/15 08:41:00;;;;;;;5.03;4.50;;;25.20;99.90;;;;;;4999837;28;20224;-77
2022/05/15 08:43:36;;;;;;;6.03;5.43;;;25.30;99.90;;;;;;4999566;28;20667;-79
2022/05/15 08:46:14;;;;;;;6.07;5.57;;;25.30;99.90;;;;;;4998517;28;20197;-76
2022/05/15 08:48:41;;;;;;;5.90;5.30;;;25.50;99.90;;;;;;5001389;28;20200;-77
2022/05/15 08:51:12;;;;;;;6.00;5.50;;;25.30;99.90;;;;;;5000653;28;20258;-78
2022/05/15 08:53:42;;;;;;;5.33;4.93;;;25.50;99.90;;;;;;5016698;28;20616;-80
2022/05/15 08:56:16;;;;;;;5.97;4.50;;;26.00;99.90;;;;;;5010323;28;20200;-81
2022/05/15 08:58:48;;;;;;;8.50;4.53;;;26.10;99.90;;;;;;5000137;28;20196;-78
2022/05/15 09:01:19;;;;;;;4.13;3.50;;;26.20;99.90;;;;;;5002115;28;20539;-78
2022/05/15 09:03:47;;;;;;;5.87;3.83;;;25.80;99.90;;;;;;5008115;28;20209;-82
2022/05/15 09:06:25;;;;;;;4.10;3.40;;;25.30;99.90;;;;;;5010519;28;20201;-79
2022/05/15 09:09:04;;;;;;;6.20;4.20;;;25.40;99.90;;;;;;5000144;28;20584;-80
2022/05/15 09:11:51;;;;;;;5.33;3.43;;;25.70;99.90;;;;;;5007007;28;20208;-79
2022/05/15 09:14:28;;;;;;;3.50;2.60;;;26.20;99.90;;;;;;5015468;28;20196;-78
2022/05/15 09:16:59;;;;;;;4.53;2.83;;;26.00;99.90;;;;;;5018680;28;20265;-80
2022/05/15 09:19:26;;;;;;;3.90;2.50;;;25.60;99.90;;;;;;5009661;28;20655;-79
2022/05/15 09:21:55;;;;;;;6.63;2.80;;;25.40;99.90;;;;;;5008505;28;20497;-76
2022/05/15 09:24:29;;;;;;;6.53;6.03;;;25.40;99.90;;;;;;5003851;28;20251;-76
2022/05/15 09:27:12;;;;;;;6.53;6.03;;;25.70;99.90;;;;;;5005327;28;20208;-76
2022/05/15 09:29:39;;;;;;;6.40;5.90;;;26.00;99.90;;;;;;4998969;28;20212;-76
2022/05/15 09:32:15;;;;;;;7.10;6.40;;;26.20;99.90;;;;;;4998263;28;20241;-76
2022/05/15 09:34:44;;;;;;;7.10;6.50;;;26.50;99.90;;;;;;5020952;28;20193;-76
2022/05/15 09:40:07;;;;;;;6.83;5.80;;;26.40;99.90;;;;;;5007795;28;20268;-76
2022/05/15 09:45:23;;;;;;;5.93;5.43;;;27.00;99.30;;;;;;5006696;28;20666;-77
2022/05/15 09:48:02;;;;;;;9.23;5.40;;;26.70;99.90;;;;;;5006589;28;20216;-76
2022/05/15 09:50:42;;;;;;;5.40;5.00;;;26.70;99.80;;;;;;5005750;28;20251;-77
2022/05/15 09:53:13;;;;;;;6.83;5.87;;;26.70;99.90;;;;;;5001523;28;20196;-76
2022/05/15 09:55:40;;;;;;;6.30;5.70;;;26.80;99.90;;;;;;5003620;28;20208;-76
2022/05/15 09:58:19;;;;;;;6.27;5.70;;;27.00;99.90;;;;;;4997927;28;20219;-76
2022/05/15 10:00:46;;;;;;;6.30;5.70;;;27.10;99.90;;;;;;5014464;28;20246;-76
2022/05/15 10:03:18;;;;;;;6.20;5.47;;;27.20;99.90;;;;;;5003096;28;20193;-77
2022/05/15 10:05:57;;;;;;;7.20;5.67;;;27.10;99.90;;;;;;4996630;28;20197;-76
2022/05/15 10:08:26;;;;;;;5.63;5.20;;;26.80;99.60;;;;;;5009599;28;20270;-76
2022/05/15 10:11:00;;;;;;;5.97;5.33;;;26.60;99.90;;;;;;5004276;28;20193;-77
2022/05/15 10:13:33;;;;;;;5.17;4.77;;;26.20;99.90;;;;;;5009177;28;20247;-76
2022/05/15 10:16:10;;;;;;;5.43;4.97;;;26.50;99.90;;;;;;5003132;28;20248;-76
2022/05/15 10:18:43;;;;;;;6.07;5.50;;;26.90;99.90;;;;;;5000558;28;20197;-77
2022/05/15 10:21:11;;;;;;;5.90;5.40;;;26.90;99.80;;;;;;5007575;28;20207;-76
2022/05/15 10:23:44;;;;;;;7.40;6.60;;;26.90;99.90;;;;;;5005182;28;20192;-77
2022/05/15 10:26:20;;;;;;;6.10;5.43;;;27.10;98.90;;;;;;5007091;28;20201;-77
2022/05/15 10:28:54;;;;;;;5.00;4.70;;;26.90;99.90;;;;;;5005391;28;20196;-76
2022/05/15 10:31:26;;;;;;;5.90;5.40;;;27.00;99.90;;;;;;5000364;28;20267;-76
2022/05/15 10:33:56;;;;;;;6.03;5.50;;;27.00;98.90;;;;;;5001354;28;20200;-76
2022/05/15 10:36:39;;;;;;;5.90;5.40;;;27.00;99.90;;;;;;5010430;28;20271;-76
2022/05/15 10:39:12;;;;;;;6.57;5.53;;;26.90;99.60;;;;;;5003303;28;20200;-76
2022/05/15 10:41:46;;;;;;;6.40;5.30;;;27.00;99.90;;;;;;5003009;28;20732;-76
2022/05/15 10:44:28;;;;;;;5.53;5.10;;;27.00;99.50;;;;;;5001808;28;20607;-76
2022/05/15 10:46:59;;;;;;;5.70;5.30;;;27.00;99.90;;;;;;5007109;28;20264;-76
2022/05/15 10:49:55;;;;;;;5.67;5.27;;;26.40;98.80;;;;;;5008562;28;20201;-76
2022/05/15 10:52:48;;;;;;;7.10;3.13;;;26.20;98.70;;;;;;5003825;28;20220;-76
2022/05/15 10:58:16;;;;;;;2.30;2.10;;;26.20;99.90;;;;;;5010844;28;20219;-76
2022/05/15 11:00:53;;;;;;;4.43;4.10;;;26.40;99.70;;;;;;5001156;28;20204;-77
2022/05/15 11:03:51;;;;;;;2.73;2.40;;;26.20;99.70;;;;;;5010826;28;20665;-78
2022/05/15 11:06:54;;;;;;;5.97;5.30;;;26.10;98.80;;;;;;5022880;28;20243;-78
2022/05/15 11:09:28;;;;;;;3.97;2.20;;;26.20;98.50;;;;;;5007619;28;20200;-78
2022/05/15 11:12:15;;;;;;;4.17;2.20;;;26.30;99.50;;;;;;5000798;28;20204;-78
2022/05/15 11:14:52;;;;;;;4.63;2.43;;;26.20;99.80;;;;;;5010810;28;20262;-78
2022/05/15 11:17:28;;;;;;;5.20;2.70;;;26.10;98.80;;;;;;5016420;28;20700;-78
2022/05/15 11:20:01;;;;;;;4.93;4.10;;;25.90;97.90;;;;;;5007361;28;20283;-78
2022/05/15 11:22:31;;;;;;;2.70;2.30;;;25.80;98.30;;;;;;5010267;28;20316;-78
2022/05/15 11:25:05;;;;;;;2.33;2.13;;;25.80;97.50;;;;;;5006762;28;20188;-78
2022/05/15 11:27:42;;;;;;;3.90;2.43;;;25.70;98.10;;;;;;4998483;28;20216;-77
2022/05/15 11:30:13;;;;;;;4.83;2.17;;;25.80;99.10;;;;;;5009267;28;20220;-77
2022/05/15 11:32:58;;;;;;;4.67;2.90;;;25.70;98.00;;;;;;4999966;28;20228;-78
2022/05/15 11:35:33;;;;;;;4.70;2.53;;;25.50;98.00;;;;;;4999643;28;20192;-77
2022/05/15 11:38:20;;;;;;;4.47;2.87;;;25.60;98.30;;;;;;5007493;28;21169;-78
2022/05/15 11:40:50;;;;;;;5.70;5.20;;;25.60;97.60;;;;;;5016793;28;20251;-78
2022/05/15 11:43:36;;;;;;;6.20;5.53;;;25.50;97.90;;;;;;5000136;28;20201;-77
2022/05/15 11:46:06;;;;;;;5.73;5.30;;;25.40;98.60;;;;;;5005796;28;20669;-77
2022/05/15 11:48:52;;;;;;;5.77;5.27;;;25.50;97.60;;;;;;5008071;28;20208;-77
2022/05/15 11:51:32;;;;;;;3.90;3.23;;;25.50;99.10;;;;;;5009477;28;20223;-77
2022/05/15 11:54:02;;;;;;;3.73;2.63;;;25.50;97.20;;;;;;5009364;28;20196;-78
2022/05/15 11:56:36;;;;;;;3.73;2.30;;;25.50;97.60;;;;;;5004684;28;20646;-78
2022/05/15 11:59:08;;;;;;;2.47;2.27;;;25.60;97.50;;;;;;5004248;28;20188;-77
2022/05/15 12:01:47;;;;;;;2.33;2.00;;;25.60;96.90;;;;;;5001074;28;20209;-77
2022/05/15 12:04:59;;;;;;;3.43;2.20;;;25.70;97.20;;;;;;5010943;28;20203;-80
2022/05/15 12:07:49;;;;;;;4.47;2.53;;;25.70;98.10;;;;;;5013623;28;20255;-80
2022/05/15 12:10:22;;;;;;;2.50;2.30;;;25.50;97.90;;;;;;5004320;28;20288;-79
2022/05/15 12:13:02;;;;;;;2.43;2.23;;;25.60;98.60;;;;;;4997716;28;20209;-79
2022/05/15 12:15:45;;;;;;;4.13;2.60;;;25.70;96.80;;;;;;5018269;28;20196;-79
2022/05/15 12:18:28;;;;;;;3.80;2.50;;;25.70;96.20;;;;;;5001312;28;20283;-78
2022/05/15 12:20:57;;;;;;;2.93;2.60;;;25.60;96.40;;;;;;4998979;28;20196;-79
2022/05/15 12:23:30;;;;;;;3.60;2.60;;;25.70;97.00;;;;;;5001560;28;20190;-78
2022/05/15 12:26:00;;;;;;;4.27;2.30;;;25.80;97.50;;;;;;5008771;28;20189;-80
2022/05/15 12:28:54;;;;;;;4.30;2.40;;;25.70;96.40;;;;;;5003074;28;20220;-79
2022/05/15 12:31:26;;;;;;;6.87;2.20;;;25.80;97.00;;;;;;5008303;28;20287;-80
2022/05/15 12:33:54;;;;;;;3.30;2.40;;;25.70;96.70;;;;;;5001544;28;20650;-80
2022/05/15 12:36:31;;;;;;;4.00;2.40;;;25.70;96.50;;;;;;5007181;28;20185;-79
2022/05/15 12:38:59;;;;;;;3.20;2.27;;;25.70;95.70;;;;;;5013739;28;20196;-80
2022/05/15 12:41:32;;;;;;;3.07;2.30;;;25.60;96.50;;;;;;5000451;28;20631;-79
2022/05/15 12:44:01;;;;;;;2.40;2.20;;;25.70;96.70;;;;;;5004902;28;20196;-80
2022/05/15 12:46:31;;;;;;;4.03;2.27;;;25.70;96.90;;;;;;5005592;28;20220;-80
2022/05/15 12:48:59;;;;;;;4.93;2.30;;;25.80;95.60;;;;;;5009494;28;20200;-80
2022/05/15 12:51:29;;;;;;;2.80;2.27;;;25.70;96.40;;;;;;5002748;28;20201;-81
2022/05/15 12:53:57;;;;;;;2.60;2.33;;;25.70;97.00;;;;;;5004484;28;20287;-79
2022/05/15 12:56:29;;;;;;;4.93;2.80;;;25.70;97.10;;;;;;5000968;28;20193;-79
2022/05/15 12:58:58;;;;;;;3.50;2.43;;;25.70;95.80;;;;;;5002446;28;20196;-80
2022/05/15 13:01:27;;;;;;;5.03;2.37;;;25.70;96.00;;;;;;5005528;28;20197;-79
2022/05/15 13:03:57;;;;;;;2.67;2.17;;;25.70;95.80;;;;;;5007584;28;20188;-79
2022/05/15 13:06:34;;;;;;;4.50;2.33;;;25.80;96.10;;;;;;4999949;28;20197;-80
2022/05/15 13:09:03;;;;;;;3.00;2.17;;;25.80;95.20;;;;;;5001123;28;20247;-79
2022/05/15 13:11:39;;;;;;;3.97;2.60;;;25.90;96.30;;;;;;5005310;28;20193;-78
2022/05/15 13:14:14;;;;;;;2.50;2.00;;;25.80;95.70;;;;;;5004616;28;20215;-81
2022/05/15 13:16:45;;;;;;;2.37;1.90;;;25.90;95.50;;;;;;5004796;28;20208;-80
2022/05/15 13:19:14;;;;;;;2.20;2.00;;;25.80;95.00;;;;;;5010808;28;20216;-80
2022/05/15 13:21:47;;;;;;;2.60;2.07;;;25.80;95.70;;;;;;5001781;28;20737;-81
2022/05/15 13:24:16;;;;;;;3.93;2.17;;;25.90;95.00;;;;;;5000572;28;20221;-80
2022/05/15 13:26:45;;;;;;;3.30;2.20;;;25.90;94.10;;;;;;4995760;28;20303;-81
2022/05/15 13:29:15;;;;;;;3.03;1.93;;;25.90;93.60;;;;;;5005071;28;20197;-81
2022/05/15 13:31:43;;;;;;;3.00;1.97;;;25.80;93.90;;;;;;5010829;28;20212;-81
2022/05/15 13:34:13;;;;;;;4.60;2.60;;;25.80;93.50;;;;;;4996011;28;20271;-80
2022/05/15 13:36:55;;;;;;;3.00;2.10;;;25.70;93.10;;;;;;5000752;28;20259;-80
2022/05/15 13:44:55;;;;;;;3.03;2.17;;;25.80;93.40;;;;;;4998551;28;20185;-81
2022/05/15 13:47:23;;;;;;;2.47;2.20;;;25.70;95.50;;;;;;5002666;28;20646;-80
2022/05/15 13:49:54;;;;;;;2.90;1.90;;;25.70;94.10;;;;;;5008559;28;20197;-79
2022/05/15 13:52:29;;;;;;;4.00;2.10;;;25.70;94.80;;;;;;5005555;28;20224;-80
2022/05/15 13:54:58;;;;;;;3.17;2.33;;;25.80;93.40;;;;;;5013116;28;20205;-80
2022/05/15 13:57:26;;;;;;;4.07;2.20;;;25.80;92.80;;;;;;5006794;28;20239;-80
2022/05/15 14:00:11;;;;;;;4.60;2.47;;;25.80;92.90;;;;;;5002922;28;20590;-81
2022/05/15 14:02:59;;;;;;;2.37;1.97;;;25.80;93.50;;;;;;5014928;28;20199;-79
2022/05/15 14:05:26;;;;;;;2.33;1.90;;;25.90;95.30;;;;;;5006809;28;20243;-79
2022/05/15 14:08:09;;;;;;;4.33;2.10;;;25.80;92.80;;;;;;5035112;23;20266;-80
2022/05/15 14:10:39;;;;;;;2.43;1.90;;;25.80;93.40;;;;;;5053465;28;20185;-81